Nearby METAR Reports

 

KOGD - Ogden, Utah, USA
Distance from station: NNW 6mi, 10km
Updated: Sat, 04-Feb-2023 1:53pm MST
Haze, Clear
Haze, Clear
 Wind from calm
Wind: Calm
Temperature: 36°F , 2°C
Dew Point: 25°F , -4°C
Humidity: 65%
Barometer: 30.23 inHg , 1023.7 hPa
Summary: Haze
Clouds: Clear
Visibility: 6 miles , 10 km
2023/02/04 20:53 KOGD 042053Z 00000KT 6SM HZ CLR 02/M04 A3023 RMK AO2 SLP251 T00221039 58015 $
KSLC - Salt Lake City, Utah, USA
Distance from station: S 24mi, 39km
Updated: Sat, 04-Feb-2023 1:54pm MST
Haze, Partly cloudy
Haze, Partly cloudy
 Wind from NW
Wind: NW 9 mph , 15 km/h
Temperature: 39°F , 4°C
Wind Chill: 33°F , 1°C
Dew Point: 27°F , -3°C
Humidity: 61%
Barometer: 30.24 inHg , 1024 hPa
Summary: Haze
Clouds: Partly cloudy
Visibility: 4 miles , 6 km
Cloud details: Partly cloudy 24000 ft
2023/02/04 20:54 KSLC 042054Z 32008KT 4SM HZ SCT240 04/M03 A3024 RMK AO2 SLP249 T00391028 56013
 
KBMC - Brigham City, Utah, USA
Distance from station: N 30mi, 49km
Updated: Sat, 04-Feb-2023 1:50pm MST
Clear
Clear
 
Temperature: 32°F , 0°C
Dew Point: 23°F , -5°C
Humidity: 69%
Barometer: 30.26 inHg , 1024.7 hPa
Clouds: Clear
Visibility: 5 miles , 8 km
2023/02/04 20:50 KBMC 042050Z AUTO 5SM CLR 00/M05 A3026 RMK AO1 T10031055
KU42 - Salt Lake Muni, Utah, USA
Distance from station: S 35mi, 56km
Updated: Sat, 04-Feb-2023 2:15pm MST
Clear
Clear
 Wind from NW
Wind: NW 10 mph , 17 km/h
Temperature: 37°F , 3°C
Wind Chill: 30°F , -1°C
Dew Point: 32°F , 0°C
Humidity: 81%
Barometer: 30.22 inHg , 1023.4 hPa
Clouds: Clear
Visibility: 5 miles , 8 km
2023/02/04 21:15 KU42 042115Z AUTO 32009KT 5SM CLR 03/00 A3022 RMK AO1 T00291002
 
KTVY - Tooele, Utah, USA
Distance from station: SSW 40mi, 64km
Updated: Sat, 04-Feb-2023 2:15pm MST
Haze, Clear
Haze, Clear
 Wind from NNW
Wind: NNW 3 mph , 6 km/h
Temperature: 34°F , 1°C
Dew Point: 23°F , -5°C
Humidity: 65%
Barometer: 30.25 inHg , 1024.4 hPa
Summary: Haze
Clouds: Clear
Visibility: 5 miles , 8 km
2023/02/04 21:15 KTVY 042115Z AUTO 34003KT 5SM HZ CLR 01/M05 A3025 RMK AO2
KLGU - Logan, Utah, USA
Distance from station: N 46mi, 75km
Updated: Sat, 04-Feb-2023 1:51pm MST
Haze, Clear
Haze, Clear
 Wind from calm
Wind: Calm
Temperature: 21°F , -6°C
Dew Point: 14°F , -10°C
Humidity: 74%
Barometer: 30.25 inHg , 1024.4 hPa
Summary: Haze
Clouds: Clear
Visibility: 1 1/2 miles , 2.4 km
2023/02/04 20:51 KLGU 042051Z AUTO 00000KT 1 1/2SM HZ CLR M06/M10 A3025 RMK AO2 SLP292 T10561100 58017
 
KEVW - Evanston, Wyoming, USA
Distance from station: ENE 50mi, 80km
Updated: Sat, 04-Feb-2023 1:53pm MST
Clear
Clear
 Wind from SW
Wind: SW 7 mph , 11 km/h
Temperature: 32°F , 0°C
Wind Chill: 25°F , -4°C
Dew Point: 18°F , -8°C
Humidity: 55%
Barometer: 30.19 inHg , 1022.4 hPa
Clouds: Clear
Visibility: 10 miles , 16 km
2023/02/04 20:53 KEVW 042053Z AUTO 23006KT 10SM CLR 00/M08 A3019 RMK AO2 SLP236 T00001083 58012